TimeCST,TemperatureF,Dew PointF,Humidity,Sea Level PressureIn,VisibilityMPH,Wind Direction,Wind SpeedMPH,Gust SpeedMPH,PrecipitationIn,Events,Conditions,WindDirDegrees,DateUTC
12:53 AM,28.9,24.1,82,30.07,10.0,North,4.6,-,N/A,,Clear,360,2013-02-25 06:53:00
1:53 AM,28.9,24.1,82,30.08,9.0,Calm,Calm,-,N/A,,Clear,0,2013-02-25 07:53:00
2:53 AM,28.9,24.1,82,30.07,9.0,NNE,3.5,-,N/A,,Clear,20,2013-02-25 08:53:00
4:53 AM,28.9,24.1,82,30.06,10.0,ESE,3.5,-,N/A,,Clear,110,2013-02-25 10:53:00
5:53 AM,32.0,25.0,75,30.03,10.0,East,9.2,-,N/A,,Clear,90,2013-02-25 11:53:00
6:53 AM,32.0,25.0,75,30.02,9.0,East,4.6,-,N/A,,Clear,90,2013-02-25 12:53:00
7:53 AM,34.0,27.0,75,30.04,8.0,East,6.9,-,N/A,,Clear,80,2013-02-25 13:53:00
8:53 AM,39.0,28.0,65,30.05,10.0,East,6.9,-,N/A,,Clear,90,2013-02-25 14:53:00
9:53 AM,42.1,28.0,58,30.03,10.0,ESE,13.8,-,N/A,,Clear,120,2013-02-25 15:53:00
10:53 AM,46.0,30.0,54,30.01,10.0,East,10.4,-,N/A,,Clear,90,2013-02-25 16:53:00
11:53 AM,46.0,30.0,54,29.99,10.0,ENE,16.1,-,N/A,,Clear,70,2013-02-25 17:53:00
12:53 PM,46.0,30.0,54,29.96,10.0,East,9.2,-,N/A,,Clear,90,2013-02-25 18:53:00
1:53 PM,46.0,30.9,56,29.90,10.0,NE,18.4,21.9,N/A,,Clear,50,2013-02-25 19:53:00
2:53 PM,45.0,30.9,58,29.87,10.0,ENE,15.0,-,N/A,,Clear,70,2013-02-25 20:53:00
3:53 PM,45.0,30.9,58,29.84,10.0,ENE,15.0,20.7,N/A,,Scattered Clouds,60,2013-02-25 21:53:00
4:53 PM,44.1,30.0,58,29.81,10.0,ENE,16.1,-,N/A,,Scattered Clouds,60,2013-02-25 22:53:00
5:53 PM,41.0,30.9,67,29.78,10.0,NE,13.8,-,N/A,,Mostly Cloudy,50,2013-02-25 23:53:00
6:53 PM,41.0,30.9,67,29.79,10.0,NE,11.5,-,N/A,,Overcast,50,2013-02-26 00:53:00
7:53 PM,39.9,32.0,73,29.81,10.0,North,10.4,-,0.00,,Overcast,10,2013-02-26 01:53:00
8:53 PM,39.0,30.9,73,29.79,10.0,NNE,9.2,-,0.01,Rain,Light Rain,20,2013-02-26 02:53:00
9:53 PM,36.0,32.0,86,29.75,5.0,NNE,16.1,-,0.09,Rain,Light Rain,30,2013-02-26 03:53:00
10:53 PM,36.0,30.9,82,29.68,6.0,NNE,15.0,25.3,0.05,Rain,Light Rain,30,2013-02-26 04:53:00
11:53 PM,35.1,30.9,85,29.62,5.0,NE,19.6,25.3,0.09,Rain,Light Rain,40,2013-02-26 05:53:00